Time;durP1;ratioP1;P1;durP2;ratioP2;P2;SDS_P1;SDS_P2;PMS_P1;PMS_P2;Temp;Humidity;BMP_temperature;BMP_pressure;BME280_temperature;BME280_humidity;BME280_pressure;Samples;Min_cycle;Max_cycle;Signal;HPM_P1;HPM_P2
2022/08/07 00:01:45;;;;;;;9.15;4.68;;;14.00;99.90;;;;;;4916004;29;20496;-82
2022/08/07 00:04:31;;;;;;;9.23;4.95;;;14.00;99.90;;;;;;4919366;29;20056;-82
2022/08/07 00:07:20;;;;;;;7.72;5.13;;;13.90;99.90;;;;;;4899771;29;20052;-81
2022/08/07 00:10:07;;;;;;;12.63;5.88;;;13.90;99.90;;;;;;4917163;29;20040;-83
2022/08/07 00:12:54;;;;;;;11.00;5.63;;;13.90;99.90;;;;;;4916523;29;20162;-82
2022/08/07 00:15:40;;;;;;;8.48;4.63;;;13.90;99.90;;;;;;4916774;29;20048;-81
2022/08/07 00:18:28;;;;;;;11.88;6.35;;;13.80;99.90;;;;;;4917947;29;20512;-82
2022/08/07 00:21:14;;;;;;;9.73;5.15;;;13.80;99.90;;;;;;4909874;29;20063;-80
2022/08/07 00:24:00;;;;;;;10.48;4.82;;;13.80;99.90;;;;;;4918955;29;20052;-79
2022/08/07 00:26:46;;;;;;;7.18;4.88;;;13.80;99.90;;;;;;4900260;29;20084;-80
2022/08/07 00:29:32;;;;;;;7.82;5.68;;;13.70;99.90;;;;;;4899673;29;20067;-79
2022/08/07 00:32:19;;;;;;;7.43;4.30;;;13.70;99.90;;;;;;4916001;29;20059;-80
2022/08/07 00:35:05;;;;;;;25.92;5.28;;;13.70;99.90;;;;;;4916444;29;20044;-83
2022/08/07 00:37:52;;;;;;;9.30;4.45;;;13.70;99.90;;;;;;4914249;29;20048;-80
2022/08/07 00:40:38;;;;;;;7.43;4.20;;;13.60;99.90;;;;;;4915577;29;20099;-81
2022/08/07 00:43:25;;;;;;;8.20;4.07;;;13.60;99.90;;;;;;4914586;29;20047;-81
2022/08/07 00:46:11;;;;;;;7.43;4.47;;;13.60;99.90;;;;;;4899066;29;20060;-81
2022/08/07 00:49:00;;;;;;;7.05;4.15;;;13.60;99.90;;;;;;4915906;29;20062;-79
2022/08/07 00:51:47;;;;;;;8.43;4.97;;;13.60;99.90;;;;;;4918031;29;20111;-82
2022/08/07 00:54:33;;;;;;;7.75;4.05;;;13.50;99.90;;;;;;4923838;29;20062;-82
2022/08/07 00:57:24;;;;;;;8.13;4.47;;;13.50;99.90;;;;;;4918261;29;20091;-81
2022/08/07 01:00:10;;;;;;;10.63;5.05;;;13.50;99.90;;;;;;4915969;29;20044;-80
2022/08/07 01:02:57;;;;;;;7.30;4.15;;;13.50;99.90;;;;;;4915378;29;20048;-80
2022/08/07 01:05:44;;;;;;;8.10;4.45;;;13.50;99.90;;;;;;4899370;29;20059;-81
2022/08/07 01:08:31;;;;;;;7.10;4.00;;;13.50;99.90;;;;;;4914624;29;20052;-80
2022/08/07 01:11:19;;;;;;;8.23;5.45;;;13.40;99.90;;;;;;4915489;29;20052;-82
2022/08/07 01:14:07;;;;;;;6.55;4.15;;;13.50;99.90;;;;;;4915029;29;20048;-80
2022/08/07 01:16:55;;;;;;;7.65;4.00;;;13.50;99.90;;;;;;4899304;29;20062;-82
2022/08/07 01:19:42;;;;;;;8.07;4.78;;;13.50;99.90;;;;;;4905282;29;20052;-81
2022/08/07 01:22:29;;;;;;;9.90;4.55;;;13.50;99.90;;;;;;4921255;29;20052;-82
2022/08/07 01:25:18;;;;;;;8.90;4.30;;;13.50;99.90;;;;;;4916228;29;20044;-82
2022/08/07 01:28:04;;;;;;;6.90;4.22;;;13.50;99.90;;;;;;4918790;29;20056;-82
2022/08/07 01:30:52;;;;;;;10.57;5.07;;;13.50;99.90;;;;;;4898268;29;20063;-81
2022/08/07 01:33:39;;;;;;;9.95;5.38;;;13.50;99.90;;;;;;4915773;29;20056;-81
2022/08/07 01:36:27;;;;;;;12.38;5.20;;;13.50;99.90;;;;;;4914804;29;20127;-82
2022/08/07 01:39:14;;;;;;;10.18;6.60;;;13.50;99.90;;;;;;4915128;29;20096;-81
2022/08/07 01:42:00;;;;;;;11.98;6.32;;;13.50;99.90;;;;;;4917223;29;20596;-82
2022/08/07 01:44:47;;;;;;;10.68;6.97;;;13.50;99.90;;;;;;4924915;29;20048;-81
2022/08/07 01:47:34;;;;;;;9.30;6.18;;;13.50;99.90;;;;;;4915183;29;20055;-82
2022/08/07 01:50:21;;;;;;;11.05;6.18;;;13.50;99.90;;;;;;4915296;29;20131;-81
2022/08/07 01:53:10;;;;;;;8.52;5.80;;;13.50;99.90;;;;;;4915227;29;20056;-82
2022/08/07 01:56:02;;;;;;;10.30;5.72;;;13.60;99.90;;;;;;4898068;29;20061;-82
2022/08/07 01:59:02;;;;;;;9.82;5.53;;;13.60;99.90;;;;;;4914334;29;20229;-82
2022/08/07 02:01:57;;;;;;;11.98;5.53;;;13.60;99.90;;;;;;4914030;29;20059;-82
2022/08/07 02:04:50;;;;;;;8.65;4.43;;;13.50;99.90;;;;;;4914289;29;20052;-80
2022/08/07 02:07:52;;;;;;;10.07;4.90;;;13.50;99.90;;;;;;4922568;29;20044;-80
2022/08/07 02:10:40;;;;;;;8.98;4.45;;;13.40;99.90;;;;;;4922607;29;20201;-82
2022/08/07 02:13:30;;;;;;;10.20;4.63;;;13.40;99.90;;;;;;4921291;29;20060;-82
2022/08/07 02:16:18;;;;;;;7.82;4.57;;;13.30;99.90;;;;;;4920589;29;20045;-81
2022/08/07 02:19:08;;;;;;;8.68;4.32;;;13.30;99.90;;;;;;4919202;29;20111;-83
2022/08/07 02:21:56;;;;;;;10.38;4.30;;;13.30;99.90;;;;;;4918063;29;20147;-81
2022/08/07 02:24:44;;;;;;;7.90;5.03;;;13.30;99.90;;;;;;4918601;29;20052;-82
2022/08/07 02:27:31;;;;;;;7.68;4.03;;;13.20;99.90;;;;;;4920072;29;20491;-83
2022/08/07 02:30:17;;;;;;;7.55;3.97;;;13.20;99.90;;;;;;4923269;29;20052;-83
2022/08/07 02:33:05;;;;;;;8.38;4.00;;;13.20;99.90;;;;;;4917819;29;20592;-83
2022/08/07 02:35:53;;;;;;;9.70;4.13;;;13.20;99.90;;;;;;4917625;29;20052;-80
2022/08/07 02:38:41;;;;;;;8.98;4.90;;;13.20;99.90;;;;;;4916985;29;20048;-80
2022/08/07 02:41:28;;;;;;;8.27;3.85;;;13.20;99.90;;;;;;4917343;29;20075;-78
2022/08/07 02:44:15;;;;;;;7.80;4.78;;;13.20;99.90;;;;;;4917226;29;20044;-79
2022/08/07 02:47:04;;;;;;;9.68;4.60;;;13.20;99.90;;;;;;4917537;29;20086;-81
2022/08/07 02:49:50;;;;;;;9.50;4.88;;;13.30;99.90;;;;;;4901137;29;20063;-81
2022/08/07 02:52:45;;;;;;;8.68;4.95;;;13.30;99.90;;;;;;4922490;29;20055;-84
2022/08/07 02:55:36;;;;;;;9.18;4.63;;;13.30;99.90;;;;;;4919211;29;20068;-82
2022/08/07 02:58:24;;;;;;;7.97;5.10;;;13.20;99.90;;;;;;4921977;29;20378;-82
2022/08/07 03:01:11;;;;;;;9.77;4.38;;;13.30;99.90;;;;;;4920057;29;20048;-84
2022/08/07 03:03:58;;;;;;;13.70;6.05;;;13.20;99.90;;;;;;4917520;29;20056;-82
2022/08/07 03:06:47;;;;;;;8.95;4.97;;;13.20;99.90;;;;;;4918878;29;20052;-81
2022/08/07 03:09:34;;;;;;;11.60;5.22;;;13.20;99.90;;;;;;4902021;29;20063;-81
2022/08/07 03:12:21;;;;;;;7.68;4.38;;;13.20;99.90;;;;;;4916780;29;20052;-82
2022/08/07 03:15:07;;;;;;;9.23;5.70;;;13.20;99.90;;;;;;4921981;29;20060;-82
2022/08/07 03:17:55;;;;;;;10.30;5.15;;;13.20;99.90;;;;;;4917056;29;20048;-83
2022/08/07 03:20:41;;;;;;;11.25;5.43;;;13.20;99.90;;;;;;4918453;29;20052;-83
2022/08/07 03:23:28;;;;;;;10.65;5.22;;;13.20;99.90;;;;;;4901293;29;20087;-82
2022/08/07 03:26:18;;;;;;;10.27;5.70;;;13.20;99.90;;;;;;4904134;29;20080;-82
2022/08/07 03:29:07;;;;;;;9.80;5.35;;;13.20;99.90;;;;;;4923543;29;20409;-83
2022/08/07 03:31:54;;;;;;;8.77;4.97;;;13.20;99.90;;;;;;4925332;29;20060;-82
2022/08/07 03:34:47;;;;;;;11.43;5.10;;;13.20;99.90;;;;;;4909439;29;20484;-83
2022/08/07 03:37:36;;;;;;;11.80;4.93;;;13.20;99.90;;;;;;4911942;29;20087;-81
2022/08/07 03:40:24;;;;;;;10.15;5.40;;;13.20;99.90;;;;;;4930528;28;20060;-83
2022/08/07 03:43:11;;;;;;;8.07;4.95;;;13.20;99.90;;;;;;4923808;29;20079;-83
2022/08/07 03:45:58;;;;;;;8.93;5.47;;;13.10;99.90;;;;;;4907294;29;20066;-82
2022/08/07 03:48:45;;;;;;;12.38;6.70;;;13.10;99.90;;;;;;4924338;29;20059;-82
2022/08/07 03:51:33;;;;;;;14.15;7.15;;;13.10;99.90;;;;;;4921937;29;20555;-82
2022/08/07 03:54:20;;;;;;;9.40;5.55;;;13.10;99.90;;;;;;4921591;29;20048;-83
2022/08/07 03:57:06;;;;;;;9.52;5.57;;;13.10;99.90;;;;;;4905977;29;20060;-83
2022/08/07 03:59:54;;;;;;;10.18;6.05;;;13.10;99.90;;;;;;4908634;29;20064;-82
2022/08/07 04:02:41;;;;;;;9.90;5.38;;;13.10;99.90;;;;;;4918897;29;20048;-83
2022/08/07 04:05:28;;;;;;;10.98;6.28;;;13.10;99.90;;;;;;4918182;29;20088;-82
2022/08/07 04:08:14;;;;;;;10.63;5.78;;;13.10;99.90;;;;;;4901626;29;20056;-81
2022/08/07 04:11:02;;;;;;;8.90;5.18;;;13.10;99.90;;;;;;4917581;29;20052;-82
2022/08/07 04:13:49;;;;;;;10.80;6.30;;;13.10;99.90;;;;;;4917260;29;20126;-83
2022/08/07 04:16:36;;;;;;;11.70;6.10;;;13.20;99.90;;;;;;4917802;29;20131;-82
2022/08/07 04:19:24;;;;;;;8.73;5.22;;;13.20;99.90;;;;;;4924316;29;20054;-83
2022/08/07 04:22:11;;;;;;;13.40;6.20;;;13.20;99.90;;;;;;4900428;29;20055;-83
2022/08/07 04:24:59;;;;;;;10.90;5.90;;;13.20;99.90;;;;;;4916800;29;20059;-83
2022/08/07 04:27:45;;;;;;;12.57;5.82;;;13.30;99.90;;;;;;4916046;29;20056;-83
2022/08/07 04:30:33;;;;;;;13.65;6.07;;;13.20;99.90;;;;;;4916625;29;20067;-82
2022/08/07 04:33:21;;;;;;;15.05;6.43;;;13.30;99.90;;;;;;4916766;29;20489;-83
2022/08/07 04:36:08;;;;;;;13.15;6.00;;;13.30;99.90;;;;;;4918993;29;20055;-84
2022/08/07 04:38:54;;;;;;;12.00;5.97;;;13.30;99.90;;;;;;4922678;29;20052;-84
2022/08/07 04:41:40;;;;;;;10.18;5.35;;;13.30;99.90;;;;;;4925584;29;20048;-82
2022/08/07 04:44:26;;;;;;;10.73;6.05;;;13.30;99.90;;;;;;4921661;29;20090;-83
2022/08/07 04:47:20;;;;;;;12.20;6.10;;;13.30;99.90;;;;;;4906386;29;20052;-84
2022/08/07 04:50:37;;;;;;;11.77;6.80;;;13.30;99.90;;;;;;4904120;29;20485;-82
2022/08/07 04:53:49;;;;;;;12.05;7.07;;;13.30;99.90;;;;;;4917596;29;20139;-81
2022/08/07 04:56:41;;;;;;;10.43;6.95;;;13.30;99.90;;;;;;4915027;29;20052;-81
2022/08/07 04:59:44;;;;;;;11.25;7.05;;;13.30;99.90;;;;;;4916711;29;20072;-81
2022/08/07 05:03:12;;;;;;;11.93;7.82;;;13.40;99.90;;;;;;4920734;29;20076;-82
2022/08/07 05:06:09;;;;;;;14.00;8.65;;;13.40;99.90;;;;;;4920213;29;20075;-82
2022/08/07 05:09:09;;;;;;;10.80;6.75;;;13.40;99.90;;;;;;4916527;29;20048;-81
2022/08/07 05:11:59;;;;;;;12.40;6.95;;;13.40;99.90;;;;;;4898870;29;20501;-81
2022/08/07 05:14:47;;;;;;;12.68;7.50;;;13.40;99.90;;;;;;4915201;29;20052;-82
2022/08/07 05:17:34;;;;;;;12.02;7.15;;;13.50;99.90;;;;;;4899282;29;20048;-81
2022/08/07 05:20:26;;;;;;;11.63;6.47;;;13.70;99.90;;;;;;4914907;29;20146;-82
2022/08/07 05:23:37;;;;;;;9.38;6.75;;;13.80;99.90;;;;;;4915096;29;20048;-83
2022/08/07 05:26:27;;;;;;;10.48;5.60;;;13.90;99.90;;;;;;4914748;29;20055;-82
2022/08/07 05:29:16;;;;;;;9.55;5.43;;;14.00;99.90;;;;;;4898335;29;20056;-81
2022/08/07 05:32:03;;;;;;;7.75;4.70;;;14.10;99.90;;;;;;4904896;29;20052;-83
2022/08/07 05:34:50;;;;;;;8.05;4.97;;;14.20;99.90;;;;;;4916053;29;20047;-82
2022/08/07 05:37:37;;;;;;;10.48;5.10;;;14.40;99.90;;;;;;4923870;29;20088;-82
2022/08/07 05:40:24;;;;;;;8.43;4.80;;;14.50;99.90;;;;;;4916289;29;20056;-82
2022/08/07 05:43:10;;;;;;;8.13;5.00;;;14.60;99.90;;;;;;4897435;29;20493;-83
2022/08/07 05:45:57;;;;;;;7.95;4.45;;;14.70;99.90;;;;;;4914720;29;20056;-82
2022/08/07 05:48:44;;;;;;;9.68;4.47;;;14.80;99.90;;;;;;4914883;29;20103;-84
2022/08/07 05:51:31;;;;;;;7.00;4.35;;;15.00;99.90;;;;;;4929710;29;20401;-83
2022/08/07 05:54:17;;;;;;;8.82;4.20;;;15.10;99.90;;;;;;4914971;29;20115;-82
2022/08/07 05:57:07;;;;;;;8.45;3.70;;;15.20;99.90;;;;;;4928668;28;20064;-82
2022/08/07 05:59:54;;;;;;;7.35;4.30;;;15.30;99.90;;;;;;4926496;29;20065;-81
2022/08/07 06:02:43;;;;;;;8.30;4.40;;;15.40;99.90;;;;;;4918029;29;20048;-81
2022/08/07 06:05:30;;;;;;;8.65;4.63;;;15.50;99.90;;;;;;4932581;29;20071;-82
2022/08/07 06:08:17;;;;;;;8.90;4.70;;;15.60;99.90;;;;;;4900926;29;20052;-82
2022/08/07 06:11:03;;;;;;;7.45;4.32;;;15.70;99.90;;;;;;4913716;29;20052;-85
2022/08/07 06:13:50;;;;;;;9.35;4.45;;;15.80;99.90;;;;;;4900453;29;20056;-83
2022/08/07 06:16:37;;;;;;;7.35;4.30;;;15.90;99.90;;;;;;4916276;29;20044;-84
2022/08/07 06:19:28;;;;;;;7.13;4.40;;;16.00;99.90;;;;;;4898218;29;20390;-84
2022/08/07 06:22:17;;;;;;;8.40;4.53;;;16.20;99.90;;;;;;4915808;29;20052;-84
2022/08/07 06:25:04;;;;;;;8.18;4.32;;;16.30;99.90;;;;;;4922136;28;20138;-84
2022/08/07 06:27:51;;;;;;;9.02;5.10;;;16.50;99.90;;;;;;4901449;29;20100;-85
2022/08/07 06:30:38;;;;;;;6.40;3.60;;;16.60;99.90;;;;;;4916387;29;20535;-85
2022/08/07 06:33:25;;;;;;;8.75;4.72;;;16.70;99.90;;;;;;4898492;29;20052;-86
2022/08/07 06:36:12;;;;;;;6.45;4.40;;;16.80;99.90;;;;;;4913541;29;20056;-85
2022/08/07 06:38:59;;;;;;;10.40;4.47;;;16.90;99.90;;;;;;4915886;29;20116;-84
2022/08/07 06:41:54;;;;;;;8.38;4.30;;;17.10;99.90;;;;;;4916797;29;20047;-85
2022/08/07 06:44:44;;;;;;;8.50;4.60;;;17.20;99.90;;;;;;4916407;29;20056;-84
2022/08/07 06:47:31;;;;;;;7.55;3.88;;;17.40;99.90;;;;;;4901104;29;20048;-84
2022/08/07 06:50:17;;;;;;;6.63;3.72;;;17.50;99.90;;;;;;4903636;29;20055;-82
2022/08/07 06:53:07;;;;;;;7.53;4.22;;;17.60;99.90;;;;;;4923426;29;20079;-83
2022/08/07 06:55:54;;;;;;;7.93;3.65;;;17.70;99.90;;;;;;4926378;29;20112;-86
2022/08/07 06:58:42;;;;;;;6.03;3.45;;;17.80;99.90;;;;;;4924895;29;20056;-84
2022/08/07 07:01:32;;;;;;;7.82;3.85;;;17.90;99.90;;;;;;4924743;29;20504;-83
2022/08/07 07:04:19;;;;;;;7.43;4.13;;;18.00;99.90;;;;;;4904483;29;20080;-84
2022/08/07 07:07:06;;;;;;;11.77;4.38;;;18.20;99.90;;;;;;4903787;29;20052;-84
2022/08/07 07:09:52;;;;;;;5.93;3.40;;;18.20;99.90;;;;;;4920003;29;20052;-89
2022/08/07 07:12:47;;;;;;;6.75;4.13;;;18.40;99.90;;;;;;4916307;29;20056;-87
2022/08/07 07:15:41;;;;;;;7.07;4.43;;;18.40;99.90;;;;;;4900579;29;20094;-83
2022/08/07 07:18:38;;;;;;;11.98;4.35;;;18.60;99.90;;;;;;4919117;29;20048;-85
2022/08/07 07:21:28;;;;;;;6.85;3.83;;;18.70;99.90;;;;;;4919698;29;20059;-81
2022/08/07 07:24:16;;;;;;;7.78;3.67;;;18.70;99.90;;;;;;4918134;29;20055;-82
2022/08/07 07:27:04;;;;;;;6.45;3.58;;;18.90;99.90;;;;;;4920731;29;20045;-83
2022/08/07 07:29:56;;;;;;;9.95;4.75;;;19.00;99.90;;;;;;4919547;28;20054;-81
2022/08/07 07:32:44;;;;;;;8.00;4.28;;;19.20;99.90;;;;;;4916995;29;20052;-83
2022/08/07 07:35:34;;;;;;;6.80;3.80;;;19.30;99.90;;;;;;4906201;29;20425;-86
2022/08/07 07:38:24;;;;;;;7.97;4.32;;;19.30;99.90;;;;;;4927692;29;20492;-84
2022/08/07 07:41:11;;;;;;;8.73;4.90;;;19.40;99.90;;;;;;4921973;29;20127;-85
2022/08/07 07:43:59;;;;;;;8.50;4.57;;;19.60;99.90;;;;;;4888093;29;20063;-84
2022/08/07 07:46:47;;;;;;;7.72;4.53;;;19.70;99.90;;;;;;4918733;29;20505;-82
2022/08/07 07:49:35;;;;;;;11.95;5.25;;;19.90;99.90;;;;;;4903580;29;20052;-80
2022/08/07 07:52:24;;;;;;;7.47;4.45;;;20.00;99.90;;;;;;4918835;29;20076;-84
2022/08/07 07:55:12;;;;;;;9.52;3.92;;;20.00;99.90;;;;;;4915551;29;20040;-81
2022/08/07 07:57:59;;;;;;;8.18;4.40;;;20.20;99.90;;;;;;4901277;29;20416;-81
2022/08/07 08:00:50;;;;;;;6.45;3.95;;;20.20;99.90;;;;;;4895332;29;20052;-82
2022/08/07 08:03:38;;;;;;;7.57;4.45;;;20.20;99.90;;;;;;4884082;29;20044;-89
2022/08/07 08:06:25;;;;;;;7.47;3.85;;;20.50;99.90;;;;;;4885358;29;20076;-84
2022/08/07 08:09:15;;;;;;;6.72;3.85;;;20.60;99.90;;;;;;4898541;29;20553;-89
2022/08/07 08:12:02;;;;;;;8.07;3.38;;;20.60;99.70;;;;;;4898007;29;20049;-90
2022/08/07 08:14:49;;;;;;;6.68;3.50;;;20.50;99.60;;;;;;4901842;29;20052;-91
2022/08/07 08:17:36;;;;;;;7.65;3.50;;;20.60;99.40;;;;;;4904296;29;20057;-84
2022/08/07 08:20:23;;;;;;;7.60;4.00;;;20.70;99.60;;;;;;4901974;29;20573;-92
2022/08/07 08:29:55;;;;;;;5.82;3.50;;;21.10;98.40;;;;;;4902365;29;20196;-88
2022/08/07 08:32:45;;;;;;;6.63;3.67;;;21.20;97.50;;;;;;4896855;29;20052;-85
2022/08/07 08:35:33;;;;;;;8.73;3.88;;;21.10;98.00;;;;;;4882100;29;20049;-86
2022/08/07 08:38:22;;;;;;;6.38;3.83;;;21.10;98.00;;;;;;4895950;29;20104;-85
2022/08/07 08:41:27;;;;;;;6.40;3.30;;;21.10;98.20;;;;;;4884628;29;20057;-88
2022/08/07 08:44:38;;;;;;;6.63;3.40;;;21.10;97.50;;;;;;4897642;29;20044;-87
2022/08/07 08:47:59;;;;;;;8.32;3.55;;;21.00;97.50;;;;;;4897865;29;20075;-85
2022/08/07 08:51:18;;;;;;;8.25;3.58;;;21.40;97.30;;;;;;4899390;29;20080;-87
2022/08/07 08:54:19;;;;;;;8.15;3.13;;;21.60;97.30;;;;;;4886821;29;20508;-87
2022/08/07 08:57:11;;;;;;;6.68;3.20;;;21.80;95.00;;;;;;4885808;29;20112;-87
2022/08/07 09:00:09;;;;;;;6.55;3.55;;;21.70;95.80;;;;;;4899085;29;20059;-84
2022/08/07 09:03:01;;;;;;;5.80;3.03;;;21.70;96.50;;;;;;4898511;29;20044;-85
2022/08/07 09:05:56;;;;;;;7.00;3.08;;;21.90;95.90;;;;;;4900848;29;20045;-85
2022/08/07 09:09:05;;;;;;;5.97;3.35;;;21.90;95.80;;;;;;4895209;29;20551;-83
2022/08/07 09:12:15;;;;;;;9.82;3.80;;;22.00;95.60;;;;;;4894347;29;20635;-83
2022/08/07 09:15:15;;;;;;;6.20;2.80;;;22.10;95.60;;;;;;4894567;29;20123;-84
2022/08/07 09:18:23;;;;;;;4.97;3.05;;;22.20;94.50;;;;;;4895157;29;20056;-83
2022/08/07 09:21:51;;;;;;;4.90;2.75;;;22.30;95.20;;;;;;4899156;29;20516;-84
2022/08/07 09:24:52;;;;;;;9.40;3.10;;;22.30;95.00;;;;;;4894466;29;20045;-85
2022/08/07 09:27:45;;;;;;;8.52;2.97;;;22.20;95.40;;;;;;4895786;29;20048;-85
2022/08/07 09:30:48;;;;;;;5.15;2.42;;;22.20;94.70;;;;;;4881191;29;20056;-84
2022/08/07 09:34:03;;;;;;;6.30;2.95;;;22.40;94.80;;;;;;4894110;29;20048;-81
2022/08/07 09:37:25;;;;;;;6.75;3.15;;;22.50;95.20;;;;;;4893897;29;20080;-81
2022/08/07 09:40:33;;;;;;;6.68;2.67;;;22.50;93.80;;;;;;4878190;29;20659;-82
2022/08/07 09:43:22;;;;;;;11.45;3.30;;;22.70;93.80;;;;;;4905430;29;20442;-83
2022/08/07 09:46:46;;;;;;;10.25;2.50;;;23.20;94.00;;;;;;4872802;29;20527;-82
2022/08/07 09:50:02;;;;;;;5.28;2.28;;;23.20;93.40;;;;;;4897054;29;20497;-83
2022/08/07 09:53:01;;;;;;;5.45;2.05;;;23.50;92.80;;;;;;4897256;29;20493;-80
2022/08/07 09:55:53;;;;;;;9.18;2.60;;;23.80;92.40;;;;;;4908469;29;20064;-84
2022/08/07 09:59:18;;;;;;;10.07;2.45;;;24.30;91.90;;;;;;4894364;29;20055;-83
2022/08/07 10:02:46;;;;;;;5.47;2.23;;;24.70;90.80;;;;;;4895376;29;20048;-81
2022/08/07 10:05:58;;;;;;;7.60;2.83;;;24.90;91.80;;;;;;4890799;29;20063;-83
2022/08/07 10:09:10;;;;;;;4.35;2.40;;;24.10;91.10;;;;;;4879918;29;20045;-84
2022/08/07 10:12:47;;;;;;;4.50;2.15;;;24.30;92.70;;;;;;4880689;29;20409;-82
2022/08/07 10:15:42;;;;;;;5.78;2.42;;;24.30;91.10;;;;;;4865818;29;20045;-84
2022/08/07 10:18:51;;;;;;;4.43;2.30;;;24.40;90.60;;;;;;4880681;29;20067;-82
2022/08/07 10:21:56;;;;;;;7.07;2.38;;;24.00;90.60;;;;;;4883648;29;20750;-90
2022/08/07 10:24:44;;;;;;;5.63;1.90;;;24.20;92.10;;;;;;4899138;29;20497;-88
2022/08/07 10:28:04;;;;;;;5.88;2.03;;;24.50;91.80;;;;;;4898954;29;20040;-85
2022/08/07 10:31:08;;;;;;;5.68;2.15;;;24.70;90.90;;;;;;4903105;29;20052;-86
2022/08/07 10:34:16;;;;;;;4.57;2.47;;;25.00;91.10;;;;;;4906746;29;20096;-84
2022/08/07 10:37:23;;;;;;;6.22;2.20;;;25.00;91.80;;;;;;4907994;29;20140;-84
2022/08/07 10:40:41;;;;;;;7.20;2.22;;;25.60;91.50;;;;;;4907075;29;20163;-84
2022/08/07 10:43:54;;;;;;;6.15;1.98;;;25.30;91.10;;;;;;4908074;29;20648;-86
2022/08/07 10:46:54;;;;;;;6.35;1.98;;;24.70;92.00;;;;;;4908649;29;20048;-82
2022/08/07 10:49:49;;;;;;;6.38;2.10;;;24.10;92.70;;;;;;4901632;29;20060;-84
2022/08/07 10:52:51;;;;;;;;;;;23.80;92.50;;;;;;4901775;29;20048;-87
2022/08/07 10:56:08;;;;;;;4.70;1.67;;;23.50;92.70;;;;;;4910486;29;19931;-87
2022/08/07 10:59:16;;;;;;;5.65;1.80;;;23.20;93.10;;;;;;4912616;29;20048;-84
2022/08/07 11:02:18;;;;;;;7.47;1.70;;;23.20;93.30;;;;;;4879322;29;20060;-88
2022/08/07 11:05:20;;;;;;;3.08;1.30;;;23.60;93.40;;;;;;4887183;29;20107;-90
2022/08/07 11:08:40;;;;;;;5.13;1.75;;;24.10;92.40;;;;;;4901332;29;20041;-82
2022/08/07 11:11:37;;;;;;;5.82;1.55;;;23.90;91.80;;;;;;4884448;29;20143;-86
2022/08/07 11:14:39;;;;;;;6.20;1.67;;;23.50;91.50;;;;;;4899776;29;20049;-90
2022/08/07 11:17:45;;;;;;;7.88;2.17;;;23.20;92.40;;;;;;4876400;29;20080;-89
2022/08/07 11:21:22;;;;;;;4.88;1.65;;;23.20;92.90;;;;;;4901588;29;20406;-91
2022/08/07 11:24:22;;;;;;;7.38;2.03;;;22.90;92.90;;;;;;4845789;29;20060;-83
2022/08/07 11:27:28;;;;;;;4.93;1.80;;;22.90;93.50;;;;;;4847913;29;20092;-85
2022/08/07 11:30:27;;;;;;;5.22;1.33;;;23.70;93.20;;;;;;4904078;29;20057;-85
2022/08/07 11:33:43;;;;;;;4.88;1.77;;;23.50;92.20;;;;;;4908620;29;20056;-87
2022/08/07 11:36:49;;;;;;;4.88;1.50;;;23.20;91.90;;;;;;4901164;29;20481;-86
2022/08/07 11:39:58;;;;;;;4.95;1.30;;;23.40;92.10;;;;;;4897677;29;20108;-84
2022/08/07 11:43:06;;;;;;;4.18;1.90;;;23.40;91.50;;;;;;4900465;29;20052;-86
2022/08/07 11:46:05;;;;;;;5.95;3.38;;;23.20;91.30;;;;;;4870734;29;20052;-89
2022/08/07 11:49:17;;;;;;;5.47;1.67;;;23.60;92.00;;;;;;4909347;29;20135;-88
2022/08/07 11:52:29;;;;;;;4.80;1.40;;;23.60;91.00;;;;;;4902415;29;20057;-90
2022/08/07 11:55:24;;;;;;;2.25;1.10;;;24.00;90.10;;;;;;4899804;29;20056;-86
2022/08/07 11:58:35;;;;;;;4.80;1.00;;;24.10;90.00;;;;;;4929934;29;20059;-86
2022/08/07 12:01:30;;;;;;;4.75;1.58;;;24.50;86.40;;;;;;4940213;28;20085;-89
2022/08/07 12:05:05;;;;;;;2.50;1.17;;;24.40;87.80;;;;;;4914307;29;20158;-85
2022/08/07 12:08:13;;;;;;;3.60;1.10;;;24.90;90.60;;;;;;4930589;29;20051;-90
2022/08/07 12:11:23;;;;;;;5.13;0.95;;;25.60;86.40;;;;;;4932100;29;20099;-88
2022/08/07 12:14:26;;;;;;;4.90;1.27;;;25.80;85.40;;;;;;4914951;29;20130;-89
2022/08/07 12:17:15;;;;;;;4.07;0.80;;;26.40;83.80;;;;;;4904457;29;20083;-84
2022/08/07 12:20:20;;;;;;;5.53;1.20;;;27.30;82.90;;;;;;4945511;29;20063;-91
2022/08/07 12:23:26;;;;;;;2.65;1.40;;;27.70;80.10;;;;;;4944445;29;20111;-85
2022/08/07 12:27:02;;;;;;;4.25;2.05;;;27.70;80.00;;;;;;4938294;29;20056;-84
2022/08/07 12:29:52;;;;;;;7.32;1.38;;;28.40;77.60;;;;;;4930483;29;20054;-87
2022/08/07 12:33:04;;;;;;;6.10;1.60;;;28.70;76.70;;;;;;4919202;29;20088;-86
2022/08/07 12:35:52;;;;;;;5.82;1.85;;;28.20;74.00;;;;;;4926497;29;20059;-88
2022/08/07 12:42:40;;;;;;;4.93;1.70;;;27.00;75.40;;;;;;4946952;29;20063;-88
2022/08/07 12:45:41;;;;;;;6.28;2.03;;;26.70;78.50;;;;;;4922573;29;20048;-87
2022/08/07 12:49:28;;;;;;;6.15;2.00;;;27.10;79.50;;;;;;4929151;29;20115;-92
2022/08/07 12:52:27;;;;;;;4.95;1.80;;;27.00;78.50;;;;;;4907647;29;20126;-89
2022/08/07 14:31:40;;;;;;;7.07;2.20;;;32.10;55.20;;;;;;4922289;29;20090;-92
2022/08/07 14:34:32;;;;;;;5.95;2.08;;;32.20;57.00;;;;;;4908554;29;20050;-93
2022/08/07 14:37:20;;;;;;;4.90;1.90;;;32.50;56.70;;;;;;4939024;29;20531;-90
2022/08/07 14:40:13;;;;;;;4.85;1.90;;;32.60;56.60;;;;;;4921589;29;20071;-87
2022/08/07 14:43:04;;;;;;;7.57;3.22;;;32.70;57.90;;;;;;4922170;29;20083;-88
2022/08/07 14:45:57;;;;;;;7.30;2.25;;;32.70;56.60;;;;;;4924267;29;20048;-90
2022/08/07 14:48:47;;;;;;;6.03;1.90;;;32.70;56.90;;;;;;4923127;29;20051;-88
2022/08/07 14:51:35;;;;;;;7.28;1.92;;;32.70;56.10;;;;;;4939289;29;20051;-85
2022/08/07 14:54:22;;;;;;;7.82;3.15;;;32.20;56.40;;;;;;4924598;29;20110;-90
2022/08/07 14:57:14;;;;;;;7.55;2.15;;;31.80;56.70;;;;;;4940564;29;20055;-91
2022/08/07 15:00:01;;;;;;;6.75;2.20;;;32.00;56.80;;;;;;4917734;29;20054;-90
2022/08/07 15:02:48;;;;;;;5.93;2.30;;;32.10;57.40;;;;;;4936974;29;20052;-89
2022/08/07 15:05:36;;;;;;;13.60;3.40;;;32.40;57.90;;;;;;4923971;29;20520;-84
2022/08/07 15:08:31;;;;;;;8.38;5.05;;;32.40;57.60;;;;;;4939243;29;20048;-86
2022/08/07 15:11:24;;;;;;;6.60;2.85;;;31.80;57.60;;;;;;4921306;29;20052;-87
2022/08/07 15:14:16;;;;;;;7.30;3.47;;;31.90;58.50;;;;;;4908089;29;20051;-86
2022/08/07 15:17:16;;;;;;;6.97;2.90;;;32.20;57.90;;;;;;4921009;29;20118;-86
2022/08/07 15:20:09;;;;;;;5.88;2.50;;;32.30;58.30;;;;;;4936459;29;20044;-88
2022/08/07 15:22:58;;;;;;;13.40;4.22;;;31.50;58.40;;;;;;4935776;29;20135;-86
2022/08/07 15:25:52;;;;;;;9.90;4.28;;;30.90;58.90;;;;;;4939437;29;20455;-84
2022/08/07 15:28:41;;;;;;;21.70;10.57;;;30.20;60.00;;;;;;4938736;29;20151;-91
2022/08/07 15:31:27;;;;;;;10.57;4.93;;;29.50;61.70;;;;;;4944325;29;20055;-91
2022/08/07 15:34:15;;;;;;;10.38;4.72;;;28.30;63.80;;;;;;4941422;29;20165;-88
2022/08/07 15:37:07;;;;;;;6.65;2.80;;;27.80;65.60;;;;;;4922198;29;20043;-87
2022/08/07 15:40:02;;;;;;;8.23;2.85;;;27.00;66.80;;;;;;4924090;29;20083;-89
2022/08/07 15:42:53;;;;;;;10.55;2.83;;;26.90;68.10;;;;;;4938610;29;20067;-89
2022/08/07 15:45:41;;;;;;;7.68;4.70;;;26.70;70.50;;;;;;4935209;29;20054;-85
2022/08/07 15:48:34;;;;;;;11.23;5.07;;;27.30;70.30;;;;;;4937087;29;20056;-94
2022/08/07 15:51:22;;;;;;;8.32;3.70;;;28.20;68.80;;;;;;4936332;29;20054;-86
2022/08/07 15:54:11;;;;;;;8.60;2.90;;;27.60;69.20;;;;;;4935829;29;20551;-88
2022/08/07 15:56:59;;;;;;;8.00;2.30;;;27.60;69.00;;;;;;4936383;29;20059;-90
2022/08/07 15:59:47;;;;;;;10.68;3.65;;;27.20;69.80;;;;;;4937511;29;20052;-88
2022/08/07 16:02:42;;;;;;;12.65;6.07;;;26.90;70.40;;;;;;4920809;29;20059;-87
2022/08/07 16:05:29;;;;;;;8.20;2.55;;;26.70;70.90;;;;;;4920543;29;20091;-90
2022/08/07 16:08:20;;;;;;;4.63;2.55;;;26.60;71.70;;;;;;4935658;28;20130;-88
2022/08/07 16:11:45;;;;;;;6.63;2.25;;;26.60;71.40;;;;;;4938562;29;20051;-87
2022/08/07 16:14:46;;;;;;;8.65;2.28;;;26.00;71.90;;;;;;4936325;29;20047;-90
2022/08/07 16:17:46;;;;;;;15.13;4.93;;;25.60;73.40;;;;;;4937831;29;20542;-88
2022/08/07 16:20:56;;;;;;;6.95;2.85;;;25.60;75.00;;;;;;4919267;29;20060;-89
2022/08/07 16:24:39;;;;;;;5.95;1.70;;;25.30;74.40;;;;;;4919357;29;20404;-91
2022/08/07 16:27:28;;;;;;;5.55;1.73;;;25.20;74.30;;;;;;4862267;29;20059;-87
2022/08/07 16:30:16;;;;;;;6.95;2.30;;;25.00;75.70;;;;;;4936480;28;20063;-86
2022/08/07 16:33:07;;;;;;;5.78;1.50;;;24.80;76.50;;;;;;4931042;29;20056;-86
2022/08/07 16:36:21;;;;;;;10.32;2.22;;;24.50;77.20;;;;;;4918979;28;20064;-86
2022/08/07 16:39:50;;;;;;;9.25;2.13;;;24.30;78.30;;;;;;4918970;29;20159;-86
2022/08/07 16:43:14;;;;;;;7.65;1.67;;;24.10;79.00;;;;;;4920072;29;20059;-85
2022/08/07 16:46:19;;;;;;;5.43;1.48;;;23.80;80.50;;;;;;4926353;29;20511;-86
2022/08/07 16:49:44;;;;;;;4.78;1.35;;;23.60;81.70;;;;;;4921681;29;20417;-89
2022/08/07 16:52:38;;;;;;;9.83;1.47;;;23.50;82.50;;;;;;4928673;29;20108;-87
2022/08/07 16:55:43;;;;;;;;;;;23.30;85.10;;;;;;4934794;29;20044;-86